Time;durP1;ratioP1;P1;durP2;ratioP2;P2;SDS_P1;SDS_P2;PMS_P1;PMS_P2;Temp;Humidity;BMP_temperature;BMP_pressure;BME280_temperature;BME280_humidity;BME280_pressure;Samples;Min_cycle;Max_cycle;Signal;HPM_P1;HPM_P2
2021/09/11 00:00:16;;;;;;;;;68.25;55.50;;;;;17.22;61.62;101234.94;4858140;29;11689;-81
2021/09/11 00:03:12;;;;;;;;;82.00;69.75;;;;;17.14;62.19;101235.13;4858684;29;11676;-81
2021/09/11 00:06:07;;;;;;;;;83.50;70.25;;;;;17.13;61.28;101234.34;4859759;29;11739;-81
2021/09/11 00:08:49;;;;;;;;;86.50;81.00;;;;;17.16;61.33;101230.78;4873071;29;11741;-81
2021/09/11 00:11:44;;;;;;;;;84.25;74.00;;;;;16.88;61.83;101227.31;4862479;29;11751;-80
2021/09/11 00:14:54;;;;;;;;;88.25;72.50;;;;;16.89;62.15;101223.34;4863267;29;11758;-80
2021/09/11 00:17:49;;;;;;;;;83.50;75.25;;;;;16.72;62.60;101230.13;4862094;29;11749;-80
2021/09/11 00:20:45;;;;;;;;;84.75;76.00;;;;;16.52;63.20;101231.13;4873843;29;11732;-81
2021/09/11 00:23:40;;;;;;;;;84.25;77.00;;;;;16.48;63.61;101230.22;4862880;29;11837;-80
2021/09/11 00:26:36;;;;;;;;;84.00;76.00;;;;;16.55;64.12;101241.56;4844480;29;11748;-80
2021/09/11 00:29:32;;;;;;;;;82.75;72.00;;;;;16.56;63.65;101232.88;4862225;29;11771;-80
2021/09/11 00:32:27;;;;;;;;;45.00;33.75;;;;;16.68;63.00;101235.56;4862926;29;11787;-81
2021/09/11 00:35:23;;;;;;;;;70.50;55.75;;;;;16.54;63.29;101237.16;4860968;29;11748;-80
2021/09/11 00:38:19;;;;;;;;;81.25;68.00;;;;;16.66;63.62;101231.53;4861276;29;11779;-81
2021/09/11 00:41:15;;;;;;;;;83.25;76.00;;;;;16.57;63.58;101239.25;4861567;29;11824;-81
2021/09/11 00:44:10;;;;;;;;;78.50;66.25;;;;;16.35;64.27;101235.06;4860971;29;11756;-81
2021/09/11 00:47:06;;;;;;;;;80.50;67.75;;;;;16.22;64.17;101239.88;4862374;29;11749;-81
2021/09/11 00:50:03;;;;;;;;;75.00;61.25;;;;;16.20;64.12;101244.22;4860757;29;11725;-81
2021/09/11 00:52:58;;;;;;;;;81.50;69.25;;;;;16.01;64.74;101244.84;4863021;29;11776;-80
2021/09/11 00:55:54;;;;;;;;;80.25;67.00;;;;;16.01;65.10;101254.03;4863229;29;12645;-81
2021/09/11 00:58:49;;;;;;;;;84.75;76.25;;;;;15.92;65.05;101247.00;4861734;29;11771;-81
2021/09/11 01:01:45;;;;;;;;;85.75;73.50;;;;;15.86;65.15;101246.41;4862300;29;11744;-81
2021/09/11 01:04:41;;;;;;;;;88.50;77.00;;;;;16.07;65.53;101254.59;4862630;29;11729;-80
2021/09/11 01:07:42;;;;;;;;;85.50;72.75;;;;;16.07;65.24;101252.63;4872311;29;11759;-81
2021/09/11 01:10:10;;;;;;;;;87.75;76.75;;;;;15.98;65.52;101253.94;4862513;29;11749;-80
2021/09/11 01:12:39;;;;;;;;;89.00;76.50;;;;;15.95;65.35;101251.84;4861394;29;11840;-81
2021/09/11 01:15:38;;;;;;;;;84.75;74.50;;;;;15.96;65.57;101253.50;4862011;29;11733;-80
2021/09/11 01:18:34;;;;;;;;;94.75;83.75;;;;;15.76;66.33;101253.31;4862101;29;11755;-81
2021/09/11 01:21:30;;;;;;;;;90.00;82.50;;;;;15.94;65.61;101253.03;4872524;29;12556;-80
2021/09/11 01:24:26;;;;;;;;;87.25;79.75;;;;;15.90;65.71;101254.91;4871526;29;11753;-80
2021/09/11 01:27:22;;;;;;;;;82.50;67.75;;;;;15.64;66.66;101252.50;4862510;29;11722;-81
2021/09/11 01:30:15;;;;;;;;;92.50;84.50;;;;;15.68;66.65;101247.88;4859622;29;11743;-81
2021/09/11 01:33:11;;;;;;;;;104.25;84.50;;;;;15.71;66.54;101250.75;4853908;29;11776;-82
2021/09/11 01:36:06;;;;;;;;;93.75;85.50;;;;;15.59;67.02;101247.97;4855209;29;11742;-81
2021/09/11 01:39:02;;;;;;;;;91.50;86.50;;;;;15.61;67.07;101245.66;4861709;29;11826;-81
2021/09/11 01:41:58;;;;;;;;;102.00;89.25;;;;;15.40;68.03;101237.41;4860152;29;11738;-81
2021/09/11 01:44:57;;;;;;;;;87.25;81.75;;;;;15.62;67.54;101252.88;4860069;29;11765;-80
2021/09/11 01:47:53;;;;;;;;;87.50;79.50;;;;;15.57;67.51;101245.53;4871894;29;11827;-81
2021/09/11 01:50:48;;;;;;;;;100.25;87.50;;;;;15.76;68.00;101252.50;4871614;29;11768;-80
2021/09/11 01:53:44;;;;;;;;;112.00;95.00;;;;;15.72;67.47;101249.63;4861261;29;11756;-80
2021/09/11 01:56:39;;;;;;;;;104.50;95.50;;;;;15.64;67.61;101249.72;4860663;29;11783;-81
2021/09/11 01:59:35;;;;;;;;;111.25;90.50;;;;;15.53;68.15;101244.59;4861392;29;11744;-81
2021/09/11 02:02:31;;;;;;;;;119.50;104.50;;;;;15.52;67.99;101254.13;4860935;29;11774;-80
2021/09/11 02:05:26;;;;;;;;;119.00;97.00;;;;;15.55;67.65;101249.81;4861268;29;11748;-80
2021/09/11 02:08:22;;;;;;;;;99.75;90.50;;;;;15.69;69.14;101253.09;4860937;29;11748;-79
2021/09/11 02:11:17;;;;;;;;;110.75;94.75;;;;;15.75;68.04;101253.66;4871368;29;11841;-80
2021/09/11 02:14:13;;;;;;;;;121.67;107.00;;;;;15.60;67.52;101263.53;4871188;29;11754;-80
2021/09/11 02:17:09;;;;;;;;;129.67;118.00;;;;;15.49;67.11;101260.44;4859785;29;8965;-81
2021/09/11 02:20:05;;;;;;;;;131.33;118.00;;;;;15.43;67.03;101258.22;4870870;29;9603;-81
2021/09/11 02:22:33;;;;;;;;;122.00;104.33;;;;;15.34;67.62;101260.31;4875437;29;8873;-81
2021/09/11 02:25:29;;;;;;;;;143.67;117.00;;;;;15.44;67.89;101266.22;4870945;29;9015;-81
2021/09/11 02:28:24;;;;;;;;;137.33;122.00;;;;;15.58;67.42;101263.91;4860906;29;9636;-81
2021/09/11 02:31:20;;;;;;;;;139.67;117.00;;;;;15.72;67.12;101271.91;4860910;29;8853;-81
2021/09/11 02:33:56;;;;;;;;;138.33;118.67;;;;;15.54;66.92;101264.94;4860984;29;8861;-81
2021/09/11 02:36:51;;;;;;;;;126.67;114.00;;;;;15.45;67.04;101264.25;4852259;29;8871;-81
2021/09/11 02:39:47;;;;;;;;;138.67;129.33;;;;;15.24;68.03;101267.97;4852521;29;8859;-82
2021/09/11 02:42:42;;;;;;;;;139.33;123.33;;;;;15.24;68.13;101267.97;4852948;29;8863;-81
2021/09/11 02:45:38;;;;;;;;;135.00;119.67;;;;;15.17;68.59;101270.53;4852175;29;8979;-81
2021/09/11 02:48:33;;;;;;;;;133.33;123.00;;;;;15.06;69.14;101261.00;4843092;29;8876;-82
2021/09/11 02:51:30;;;;;;;;;129.00;113.33;;;;;15.11;68.66;101263.59;4852392;29;8883;-81
2021/09/11 02:53:59;;;;;;;;;130.67;117.67;;;;;14.96;69.22;101256.72;4855989;29;8947;-81
2021/09/11 02:56:55;;;;;;;;;130.00;119.67;;;;;15.16;69.59;101254.97;4852205;29;9010;-80
2021/09/11 02:59:36;;;;;;;;;122.00;111.67;;;;;15.37;68.47;101263.22;4841160;29;8896;-82
2021/09/11 03:02:31;;;;;;;;;129.67;114.00;;;;;15.26;68.57;101256.50;4842496;29;8872;-81
2021/09/11 03:05:27;;;;;;;;;124.67;110.00;;;;;15.27;67.99;101260.91;4868669;29;8864;-80
2021/09/11 03:08:22;;;;;;;;;120.33;106.67;;;;;15.21;67.30;101254.75;4861338;29;8845;-80
2021/09/11 03:11:11;;;;;;;;;113.00;106.67;;;;;15.02;67.46;101260.06;4861002;29;8869;-81
2021/09/11 03:13:38;;;;;;;;;121.67;104.67;;;;;15.07;67.60;101265.41;4859449;29;8988;-81
2021/09/11 03:16:34;;;;;;;;;110.00;101.00;;;;;15.15;69.08;101258.91;4858206;29;9643;-80
2021/09/11 03:19:29;;;;;;;;;131.67;117.67;;;;;15.02;68.10;101266.44;4859581;29;9436;-81
2021/09/11 03:21:57;;;;;;;;;93.67;77.67;;;;;15.13;67.58;101266.00;4863652;29;8886;-80
2021/09/11 03:24:53;;;;;;;;;115.00;102.00;;;;;15.13;67.49;101266.81;4876927;29;8874;-81
2021/09/11 03:27:48;;;;;;;;;103.67;100.00;;;;;15.10;67.56;101267.50;4868013;29;9704;-81
2021/09/11 03:30:44;;;;;;;;;119.33;104.67;;;;;14.87;68.15;101274.66;4861367;29;8885;-81
2021/09/11 03:33:39;;;;;;;;;109.33;103.00;;;;;14.91;67.95;101270.06;4861026;29;8910;-82
2021/09/11 03:36:35;;;;;;;;;109.50;98.00;;;;;14.97;68.09;101268.66;4865208;29;8866;-81
2021/09/11 03:39:31;;;;;;;;;102.00;89.25;;;;;15.03;68.69;101270.06;4878558;29;11740;-81
2021/09/11 03:42:26;;;;;;;;;87.50;77.00;;;;;14.96;68.17;101258.69;4871366;29;11959;-81
2021/09/11 03:45:22;;;;;;;;;90.00;85.50;;;;;15.01;68.24;101261.22;4865462;29;11738;-82
2021/09/11 03:48:17;;;;;;;;;85.25;77.50;;;;;15.08;67.80;101271.81;4869496;29;11745;-82
2021/09/11 03:51:13;;;;;;;;;86.00;79.25;;;;;15.07;67.20;101278.53;4871882;29;11758;-83
2021/09/11 03:54:09;;;;;;;;;89.25;78.25;;;;;15.04;67.37;101274.47;4868785;29;11823;-82
2021/09/11 03:57:05;;;;;;;;;84.25;72.00;;;;;14.97;68.18;101277.03;4869472;29;11721;-82
2021/09/11 04:00:00;;;;;;;;;6.75;0.00;;;;;15.19;68.20;101282.16;4868423;29;11821;-81
2021/09/11 04:02:56;;;;;;;;;80.00;65.00;;;;;15.13;68.55;101283.53;4861129;29;11731;-82
2021/09/11 04:05:52;;;;;;;;;82.00;66.00;;;;;15.13;68.23;101280.75;4862709;29;11747;-81
2021/09/11 04:08:47;;;;;;;;;76.00;62.75;;;;;15.24;68.08;101290.25;4863689;29;12683;-81
2021/09/11 04:11:35;;;;;;;;;66.25;53.00;;;;;15.24;67.60;101286.66;4863443;29;11701;-81
2021/09/11 04:14:31;;;;;;;;;73.25;56.25;;;;;15.22;67.58;101287.03;4864168;29;11720;-80
2021/09/11 04:16:59;;;;;;;;;77.75;61.00;;;;;15.23;67.04;101283.06;4862147;29;11767;-80
2021/09/11 04:19:55;;;;;;;;;69.50;56.00;;;;;15.36;66.94;101283.88;4867067;29;11737;-81
2021/09/11 04:22:43;;;;;;;;;66.75;52.25;;;;;15.42;66.52;101288.06;4876984;29;11741;-80
2021/09/11 04:25:38;;;;;;;;;63.25;52.25;;;;;15.53;65.86;101291.19;4863277;29;11712;-81
2021/09/11 04:28:34;;;;;;;;;69.00;54.75;;;;;15.62;65.04;101291.09;4874944;29;11712;-83
2021/09/11 04:31:29;;;;;;;;;72.25;56.00;;;;;15.72;66.94;101291.44;4865498;29;12463;-80
2021/09/11 04:34:25;;;;;;;;;71.75;57.75;;;;;16.00;65.89;101277.53;4871930;29;11732;-79
2021/09/11 04:37:21;;;;;;;;;69.25;56.50;;;;;16.27;66.44;101281.50;4863105;29;11655;-80
2021/09/11 04:40:19;;;;;;;;;63.75;52.25;;;;;16.35;64.91;101282.53;4867565;29;11665;-82
2021/09/11 04:43:14;;;;;;;;;65.75;52.00;;;;;16.63;64.50;101277.72;4873735;29;11788;-83
2021/09/11 04:46:10;;;;;;;;;67.25;53.75;;;;;16.59;64.17;101284.38;4867270;29;11662;-84
2021/09/11 04:49:05;;;;;;;;;63.25;51.50;;;;;16.59;64.24;101284.38;4875887;29;11654;-84
2021/09/11 04:52:05;;;;;;;;;66.75;53.50;;;;;16.66;63.63;101279.00;4870559;29;11659;-85
2021/09/11 04:55:01;;;;;;;;;63.00;52.25;;;;;16.78;63.47;101275.31;4868861;29;11673;-82
2021/09/11 04:57:56;;;;;;;;;61.00;51.25;;;;;16.88;62.94;101283.19;4885540;29;11644;-85
2021/09/11 05:00:52;;;;;;;;;67.00;55.00;;;;;17.33;64.33;101270.72;4879187;29;11648;-85
2021/09/11 05:03:48;;;;;;;;;62.50;50.00;;;;;17.67;62.90;101281.13;4865445;29;11684;-85
2021/09/11 05:06:43;;;;;;;;;68.00;54.25;;;;;17.80;62.34;101281.06;4868216;29;11638;-86
2021/09/11 05:09:11;;;;;;;;;70.75;55.00;;;;;17.90;62.19;101288.88;4874217;29;11655;-85
2021/09/11 05:12:07;;;;;;;;;78.75;69.25;;;;;18.12;61.31;101290.13;4869045;29;11641;-85
2021/09/11 05:15:03;;;;;;;;;106.50;93.75;;;;;18.14;61.39;101285.78;4880785;29;11741;-85
2021/09/11 05:17:58;;;;;;;;;95.50;87.50;;;;;18.22;59.42;101287.53;4865951;29;11732;-83
2021/09/11 05:20:46;;;;;;;;;76.25;63.50;;;;;18.22;59.26;101289.53;4865259;29;11775;-85
2021/09/11 05:23:41;;;;;;;;;98.75;85.75;;;;;18.59;61.70;101293.50;4877563;29;11717;-83
2021/09/11 05:26:37;;;;;;;;;89.00;82.00;;;;;18.77;59.33;101291.03;4859914;29;11771;-85
2021/09/11 05:29:05;;;;;;;;;92.25;80.00;;;;;18.87;57.58;101289.66;4894609;29;11710;-83
2021/09/11 05:32:01;;;;;;;;;94.75;84.75;;;;;18.86;55.77;101282.38;4870426;29;12536;-83
2021/09/11 05:34:56;;;;;;;;;75.00;60.25;;;;;19.26;60.00;101292.31;4862333;29;11745;-84
2021/09/11 05:37:52;;;;;;;;;85.25;78.50;;;;;19.27;56.47;101277.91;4882300;29;11665;-83
2021/09/11 05:40:47;;;;;;;;;81.25;73.50;;;;;19.47;57.11;101278.59;4865239;29;11681;-85
2021/09/11 05:43:29;;;;;;;;;89.75;81.75;;;;;19.38;55.76;101278.06;4864243;29;11726;-82
2021/09/11 05:46:24;;;;;;;;;89.75;79.75;;;;;19.31;54.17;101283.56;4866277;29;11743;-85
2021/09/11 05:49:20;;;;;;;;;85.75;78.00;;;;;19.48;54.22;101277.44;4854507;29;11758;-83
2021/09/11 05:52:16;;;;;;;;;81.75;75.25;;;;;19.59;54.10;101275.63;4866818;29;11764;-83
2021/09/11 05:55:12;;;;;;;;;83.50;81.25;;;;;19.82;54.58;101283.97;4865482;29;11658;-82
2021/09/11 05:57:41;;;;;;;;;93.00;80.00;;;;;19.93;53.56;101289.72;4867689;29;11670;-85
2021/09/11 06:00:36;;;;;;;;;88.00;81.00;;;;;20.06;51.54;101284.69;4859922;29;11814;-85
2021/09/11 06:03:33;;;;;;;;;77.25;69.75;;;;;20.45;55.06;101285.19;4859273;29;11746;-82
2021/09/11 06:06:29;;;;;;;;;82.50;82.50;;;;;20.76;51.86;101287.53;4862849;29;12431;-83
2021/09/11 06:09:24;;;;;;;;;96.75;93.00;;;;;21.01;50.36;101290.59;4857837;29;11802;-84
2021/09/11 06:12:20;;;;;;;;;77.00;68.75;;;;;21.12;47.47;101292.69;4848763;29;12549;-81
2021/09/11 06:15:15;;;;;;;;;75.50;69.25;;;;;21.34;47.49;101281.25;4851905;29;11701;-84
2021/09/11 06:18:11;;;;;;;;;57.25;47.25;;;;;21.42;46.74;101293.38;4875264;29;12547;-82
2021/09/11 06:21:07;;;;;;;;;71.00;61.00;;;;;21.85;48.20;101293.63;4842612;29;11182;-82
2021/09/11 06:24:02;;;;;;;;;73.75;65.00;;;;;22.13;50.58;101298.66;4841746;29;11594;-80
2021/09/11 06:26:58;;;;;;;;;71.50;61.50;;;;;22.06;45.32;101295.78;4850526;29;10950;-83
2021/09/11 06:29:26;;;;;;;;;74.25;62.50;;;;;22.35;45.01;101294.72;4856156;29;10828;-84
2021/09/11 06:32:21;;;;;;;;;74.00;61.75;;;;;22.67;49.00;101297.63;4864457;29;10605;-86
2021/09/11 06:35:05;;;;;;;;;75.75;65.00;;;;;22.97;44.12;101302.16;4850422;29;10391;-87
2021/09/11 06:38:00;;;;;;;;;76.00;64.75;;;;;22.81;43.77;101304.50;4860234;29;10718;-85
2021/09/11 06:40:28;;;;;;;;;77.75;65.25;;;;;22.93;41.85;101302.16;4861201;29;10928;-89
2021/09/11 06:42:57;;;;;;;;;75.00;65.00;;;;;23.29;43.63;101307.81;4875757;29;10832;-87
2021/09/11 06:45:25;;;;;;;;;74.50;63.50;;;;;23.55;43.57;101295.31;4875923;29;11196;-88
2021/09/11 06:47:58;;;;;;;;;73.50;63.00;;;;;23.63;41.99;101294.09;4875190;29;10299;-84
2021/09/11 06:50:26;;;;;;;;;69.75;56.00;;;;;23.72;40.78;101290.88;4860219;29;10468;-87
2021/09/11 06:52:54;;;;;;;;;68.75;52.25;;;;;23.95;40.79;101296.84;4861338;29;10033;-87
2021/09/11 06:55:22;;;;;;;;;63.33;51.00;;;;;24.04;41.51;101294.41;4861429;29;9800;-84
2021/09/11 06:57:49;;;;;;;;;55.50;45.00;;;;;24.31;39.25;101300.34;4860425;29;9115;-89
2021/09/11 07:00:17;;;;;;;;;38.50;34.75;;;;;24.62;38.61;101301.44;4861634;29;8912;-86
2021/09/11 07:02:45;;;;;;;;;34.00;32.00;;;;;24.72;38.24;101301.78;4861667;29;8913;-90
2021/09/11 07:05:14;;;;;;;;;35.75;33.00;;;;;24.90;38.40;101297.59;4875203;29;8853;-88
2021/09/11 07:07:41;;;;;;;;;36.25;33.00;;;;;24.83;38.37;101300.47;4875887;29;8958;-88
2021/09/11 07:10:10;;;;;;;;;46.25;38.75;;;;;24.94;37.65;101303.25;4875271;29;8912;-86
2021/09/11 07:12:37;;;;;;;;;44.00;37.25;;;;;25.23;37.84;101310.34;4875463;29;8873;-87
2021/09/11 07:15:06;;;;;;;;;44.50;38.00;;;;;25.07;36.98;101303.59;4875196;29;8980;-89
2021/09/11 07:17:36;;;;;;;;;52.75;43.00;;;;;25.41;36.05;101298.84;4875417;29;8892;-88
2021/09/11 07:20:05;;;;;;;;;55.00;42.25;;;;;25.69;36.46;101314.78;4860134;29;8857;-90
2021/09/11 07:22:33;;;;;;;;;48.50;41.50;;;;;25.94;36.56;101308.88;4875536;29;8865;-87
2021/09/11 07:25:02;;;;;;;;;30.50;29.25;;;;;25.90;35.11;101296.75;4860830;29;8865;-91
2021/09/11 07:27:30;;;;;;;;;28.00;28.00;;;;;25.71;34.88;101297.34;4875604;29;8865;-86
2021/09/11 07:29:58;;;;;;;;;38.25;31.25;;;;;25.76;35.35;101299.75;4861697;29;8861;-86
2021/09/11 07:32:26;;;;;;;;;29.75;29.25;;;;;26.05;35.19;101300.25;4875958;29;8983;-89
2021/09/11 07:34:54;;;;;;;;;46.25;39.25;;;;;26.21;34.44;101294.78;4876161;29;8849;-90
2021/09/11 07:37:22;;;;;;;;;44.00;36.00;;;;;26.29;34.82;101296.28;4860405;29;8961;-89
2021/09/11 07:39:50;;;;;;;;;38.00;34.25;;;;;26.33;33.99;101287.75;4859822;29;9678;-84
2021/09/11 07:42:18;;;;;;;;;40.25;35.00;;;;;26.54;33.01;101296.00;4862477;29;9045;-88
2021/09/11 07:44:45;;;;;;;;;46.25;38.25;;;;;26.81;33.21;101295.19;4875580;29;8850;-90
2021/09/11 07:47:13;;;;;;;;;40.50;34.25;;;;;27.05;33.00;101288.34;4859697;29;8889;-89
2021/09/11 07:49:41;;;;;;;;;33.25;31.00;;;;;27.19;32.22;101293.00;4860039;29;8893;-87
2021/09/11 07:52:09;;;;;;;;;41.75;35.75;;;;;27.06;32.34;101289.97;4860665;29;8857;-87
2021/09/11 07:54:36;;;;;;;;;38.50;33.50;;;;;27.20;33.63;101297.44;4860928;29;8952;-91
2021/09/11 07:57:04;;;;;;;;;38.00;31.20;;;;;27.25;32.33;101291.28;4844707;29;8889;-87
2021/09/11 07:59:32;;;;;;;;;28.60;28.00;;;;;27.45;31.25;101291.31;4861049;29;8865;-86
2021/09/11 08:02:00;;;;;;;;;36.60;33.00;;;;;27.61;32.00;101287.81;4860161;29;9059;-90
2021/09/11 08:04:28;;;;;;;;;33.80;31.60;;;;;27.67;31.04;101283.25;4844723;29;8881;-92
2021/09/11 08:06:57;;;;;;;;;22.80;22.80;;;;;27.76;31.86;101277.81;4859881;29;8861;-87
2021/09/11 08:09:25;;;;;;;;;23.00;23.00;;;;;27.56;31.65;101280.59;4874726;29;8845;-90
2021/09/11 08:11:52;;;;;;;;;25.80;25.80;;;;;27.48;31.84;101279.13;4859677;29;8857;-89
2021/09/11 08:14:22;;;;;;;;;34.00;31.20;;;;;27.34;30.68;101277.31;4874536;29;8881;-89
2021/09/11 08:16:50;;;;;;;;;36.20;32.00;;;;;27.13;31.43;101269.16;4874925;29;8854;-90
2021/09/11 08:19:37;;;;;;;;;22.80;22.80;;;;;27.26;32.08;101264.50;4872943;29;8873;-86
2021/09/11 08:22:05;;;;;;;;;34.75;30.00;;;;;27.14;31.98;101268.75;4859273;29;8913;-85
2021/09/11 08:24:33;;;;;;;;;47.25;39.00;;;;;27.19;31.21;101260.97;4859692;29;8908;-87
2021/09/11 08:27:01;;;;;;;;;42.50;35.50;;;;;27.28;31.84;101266.91;4874887;29;8865;-84
2021/09/11 08:29:29;;;;;;;;;28.80;28.20;;;;;27.36;31.61;101257.81;4862863;29;8892;-85
2021/09/11 08:31:57;;;;;;;;;32.60;30.00;;;;;27.55;31.34;101261.94;4878309;29;8881;-87
2021/09/11 08:34:24;;;;;;;;;23.00;23.00;;;;;27.74;29.78;101248.22;4862467;29;8924;-85
2021/09/11 08:36:52;;;;;;;;;37.80;33.20;;;;;27.95;29.93;101245.75;4863715;29;8877;-92
2021/09/11 08:39:28;;;;;;;;;24.00;24.00;;;;;28.14;30.10;101247.00;4877107;29;8881;-89
2021/09/11 08:41:56;;;;;;;;;31.00;29.20;;;;;28.44;29.46;101236.59;4862651;29;8872;-89
2021/09/11 08:44:25;;;;;;;;;23.60;23.60;;;;;28.43;29.76;101241.47;4849892;29;9660;-88
2021/09/11 08:46:56;;;;;;;;;20.00;19.40;;;;;28.65;29.15;101229.63;4878025;29;9604;-90
2021/09/11 08:49:24;;;;;;;;;18.60;18.60;;;;;29.03;29.51;101235.63;4868057;29;8900;-88
2021/09/11 08:51:53;;;;;;;;;17.60;16.60;;;;;29.15;28.46;101234.09;4864768;29;8885;-90
2021/09/11 08:54:20;;;;;;;;;17.40;17.40;;;;;28.97;28.58;101231.69;4877754;29;8885;-89
2021/09/11 08:56:50;;;;;;;;;29.80;28.20;;;;;29.12;27.64;101230.09;4879395;29;8986;-89
2021/09/11 08:59:19;;;;;;;;;45.00;36.60;;;;;29.52;28.00;101227.84;4881801;29;8907;-90
2021/09/11 09:02:08;;;;;;;;;11.60;11.60;;;;;29.55;28.14;101226.94;4878246;29;8937;-90
2021/09/11 09:04:53;;;;;;;;;20.60;19.20;;;;;29.77;27.68;101223.47;4862651;29;8934;-88
2021/09/11 09:07:39;;;;;;;;;21.40;20.20;;;;;29.69;27.55;101222.88;4864583;29;8976;-89
2021/09/11 09:10:10;;;;;;;;;26.40;26.40;;;;;29.46;27.68;101223.91;4867092;29;8917;-85
2021/09/11 09:13:06;;;;;;;;;29.60;29.00;;;;;29.55;28.13;101215.53;4873522;29;8896;-90
2021/09/11 09:16:14;;;;;;;;;14.60;13.60;;;;;29.81;27.19;101216.41;4873240;29;8896;-90
2021/09/11 09:19:22;;;;;;;;;26.60;26.00;;;;;29.81;27.32;101210.72;4861919;29;8969;-89
2021/09/11 09:21:59;;;;;;;;;20.60;20.60;;;;;30.13;26.13;101209.78;4863674;29;8869;-88
2021/09/11 09:24:30;;;;;;;;;27.40;27.40;;;;;29.97;26.59;101209.03;4862436;29;8873;-89
2021/09/11 09:27:03;;;;;;;;;27.40;25.60;;;;;30.00;26.94;101214.66;4880948;29;8885;-86
2021/09/11 09:29:38;;;;;;;;;19.00;19.00;;;;;29.53;26.55;101209.50;4863350;29;8861;-86
2021/09/11 09:32:09;;;;;;;;;18.40;18.40;;;;;29.55;27.84;101203.34;4862112;29;8944;-85
2021/09/11 09:34:40;;;;;;;;;32.40;26.20;;;;;29.22;27.55;101197.69;4860791;29;8873;-89
2021/09/11 09:37:52;;;;;;;;;47.60;36.40;;;;;29.25;27.40;101196.00;4861016;29;8964;-86
2021/09/11 09:40:51;;;;;;;;;22.20;21.40;;;;;29.51;27.06;101189.16;4860845;29;8884;-81
2021/09/11 09:43:48;;;;;;;;;30.60;29.00;;;;;29.72;26.82;101190.63;4861766;29;9617;-83
2021/09/11 09:46:45;;;;;;;;;15.40;15.40;;;;;29.95;27.09;101189.53;4861574;29;9580;-81
2021/09/11 09:49:34;;;;;;;;;21.20;20.60;;;;;30.07;26.70;101193.69;4877341;29;8878;-80
2021/09/11 09:52:30;;;;;;;;;14.80;14.80;;;;;30.18;26.63;101192.13;4868282;29;8948;-80
2021/09/11 09:55:26;;;;;;;;;16.60;16.60;;;;;29.90;26.99;101181.53;4867555;29;8870;-81
2021/09/11 09:58:22;;;;;;;;;21.20;21.20;;;;;29.98;27.20;101179.28;4873790;29;8890;-83
2021/09/11 10:00:50;;;;;;;;;30.40;28.40;;;;;30.17;26.97;101175.47;4879832;29;8870;-81
2021/09/11 10:03:18;;;;;;;;;27.80;27.80;;;;;30.25;27.00;101184.59;4880136;29;8866;-82
2021/09/11 10:05:52;;;;;;;;;29.00;29.00;;;;;30.02;26.94;101188.53;4861051;29;8945;-80
2021/09/11 10:08:20;;;;;;;;;20.40;20.40;;;;;30.12;25.42;101178.88;4861565;29;8869;-83
2021/09/11 10:11:09;;;;;;;;;21.40;20.00;;;;;29.78;25.67;101173.78;4861580;29;8881;-83
2021/09/11 10:13:59;;;;;;;;;16.60;16.60;;;;;29.66;26.14;101178.16;4873286;29;8910;-81
2021/09/11 10:16:58;;;;;;;;;17.20;17.20;;;;;29.79;27.05;101181.88;4861100;29;8891;-84
2021/09/11 10:19:54;;;;;;;;;16.40;16.40;;;;;29.58;26.69;101171.88;4873307;29;9096;-77
2021/09/11 10:22:37;;;;;;;;;10.00;10.00;;;;;29.69;26.62;101180.13;4873161;29;8899;-83
2021/09/11 10:25:05;;;;;;;;;15.00;15.00;;;;;29.63;26.57;101173.38;4861153;29;9647;-80
2021/09/11 10:27:39;;;;;;;;;20.20;19.60;;;;;29.82;25.92;101174.44;4875426;29;8887;-80
2021/09/11 10:30:22;;;;;;;;;15.00;15.00;;;;;30.01;26.46;101175.53;4862485;29;8942;-81
2021/09/11 10:32:50;;;;;;;;;18.00;18.00;;;;;30.35;nan;101167.13;4885793;29;8874;-84
2021/09/11 10:35:45;;;;;;;;;18.60;18.60;;;;;30.75;25.68;101169.53;4879215;29;8858;-82
2021/09/11 10:38:42;;;;;;;;;31.80;26.60;;;;;30.96;25.94;101170.84;4862791;29;8869;-82
2021/09/11 10:41:14;;;;;;;;;16.80;16.80;;;;;30.78;25.68;101156.41;4860931;29;9634;-83
2021/09/11 10:44:11;;;;;;;;;18.00;18.00;;;;;30.78;26.11;101162.09;4860653;29;8859;-80
2021/09/11 10:47:07;;;;;;;;;17.60;17.60;;;;;30.84;25.15;101146.00;4867523;29;8849;-83
2021/09/11 10:50:12;;;;;;;;;19.80;19.80;;;;;31.07;25.40;101148.44;4879943;29;8900;-81
2021/09/11 10:53:24;;;;;;;;;23.00;19.40;;;;;30.97;24.54;101147.53;4866380;29;8936;-81
2021/09/11 10:55:52;;;;;;;;;17.60;17.60;;;;;31.37;25.48;101152.69;4869067;29;8956;-81
2021/09/11 10:58:39;;;;;;;;;20.40;20.40;;;;;31.50;24.81;101141.19;4869308;29;8863;-80
2021/09/11 11:01:07;;;;;;;;;18.80;18.80;;;;;31.76;25.87;101130.41;4871275;29;8922;-80
2021/09/11 11:04:07;;;;;;;;;15.40;15.40;;;;;31.45;25.40;101138.94;4869003;29;9024;-77
2021/09/11 11:06:38;;;;;;;;;19.60;17.20;;;;;31.50;25.17;101129.75;4851905;29;8860;-81
2021/09/11 11:09:45;;;;;;;;;21.00;20.20;;;;;31.43;24.79;101133.66;4849697;29;8873;-81
2021/09/11 11:12:46;;;;;;;;;15.40;15.40;;;;;31.22;24.74;101131.63;4860347;29;8858;-79
2021/09/11 11:15:25;;;;;;;;;19.00;19.00;;;;;31.52;25.22;101119.47;4874672;29;8869;-78
2021/09/11 11:18:22;;;;;;;;;17.80;17.80;;;;;31.74;24.76;101125.13;4870377;29;8919;-77
2021/09/11 11:20:50;;;;;;;;;20.60;20.20;;;;;32.32;24.51;101124.53;4858990;29;8869;-77
2021/09/11 11:23:46;;;;;;;;;16.40;16.40;;;;;32.50;23.78;101120.91;4859863;29;9057;-78
2021/09/11 11:26:43;;;;;;;;;15.00;15.00;;;;;32.80;22.62;101130.69;4869134;29;9096;-78
2021/09/11 11:29:39;;;;;;;;;17.60;17.60;;;;;32.75;23.07;101124.81;4859679;29;8873;-78
2021/09/11 11:32:35;;;;;;;;;17.80;17.80;;;;;32.39;22.74;101119.78;4843460;29;8875;-76
2021/09/11 11:35:31;;;;;;;;;15.00;15.00;;;;;32.44;23.20;101122.03;4870277;29;8990;-77
2021/09/11 11:38:27;;;;;;;;;19.00;19.00;;;;;32.09;23.69;101120.09;4864495;29;8861;-78
2021/09/11 11:41:04;;;;;;;;;16.80;16.80;;;;;31.86;23.74;101112.06;4864052;29;9631;-78
2021/09/11 11:44:00;;;;;;;;;19.40;19.40;;;;;31.40;24.74;101122.38;4840016;29;8933;-75
2021/09/11 11:47:07;;;;;;;;;20.00;19.00;;;;;31.23;24.33;101119.72;4847045;29;8889;-76
2021/09/11 11:50:18;;;;;;;;;19.80;19.80;;;;;31.14;24.89;101118.81;4860777;29;8888;-77
2021/09/11 11:53:18;;;;;;;;;19.80;19.40;;;;;31.06;24.59;101109.72;4859698;29;8932;-76
2021/09/11 11:56:14;;;;;;;;;19.20;19.20;;;;;31.19;24.70;101113.28;4860150;29;8885;-77
2021/09/11 11:59:09;;;;;;;;;18.00;14.40;;;;;31.22;24.68;101105.91;4859918;29;8936;-78
2021/09/11 12:01:51;;;;;;;;;16.60;15.60;;;;;31.19;25.85;101110.44;4862916;29;8959;-78
2021/09/11 12:04:48;;;;;;;;;17.00;16.60;;;;;31.29;25.02;101105.63;4893051;29;8863;-78
2021/09/11 12:08:09;;;;;;;;;20.20;20.20;;;;;31.58;24.59;101104.53;4882052;29;8867;-78
2021/09/11 12:11:13;;;;;;;;;16.40;16.20;;;;;31.37;24.53;101106.19;4873893;29;8870;-77
2021/09/11 12:14:09;;;;;;;;;22.40;20.60;;;;;31.36;24.65;101113.91;4861916;29;8864;-78
2021/09/11 12:17:13;;;;;;;;;40.80;30.40;;;;;31.16;24.62;101111.38;4872769;29;8875;-79
2021/09/11 12:20:15;;;;;;;;;20.20;20.20;;;;;31.13;24.69;101108.63;4844798;29;8956;-79
2021/09/11 12:23:13;;;;;;;;;18.80;18.80;;;;;31.08;25.21;101110.03;4860553;29;8865;-79
2021/09/11 12:26:08;;;;;;;;;23.60;21.80;;;;;30.94;24.33;101108.47;4863174;29;8885;-79
2021/09/11 12:28:36;;;;;;;;;17.60;17.20;;;;;30.92;24.79;101102.44;4877246;29;8865;-78
2021/09/11 12:31:33;;;;;;;;;20.00;20.00;;;;;30.84;25.02;101100.31;4861104;29;8980;-79
2021/09/11 12:34:04;;;;;;;;;23.80;23.80;;;;;30.98;25.29;101097.75;4871970;29;8870;-78
2021/09/11 12:37:04;;;;;;;;;20.00;20.00;;;;;30.97;25.79;101098.97;4877350;29;8928;-77
2021/09/11 12:39:59;;;;;;;;;29.40;28.80;;;;;30.81;25.85;101095.50;4863098;29;8968;-76